createdAt,value
2022-11-24T00:01:24.185Z,100057.00
2022-11-24T00:03:55.984Z,100053.66
2022-11-24T00:06:26.855Z,100056.56
2022-11-24T00:08:55.761Z,100057.00
2022-11-24T00:11:26.180Z,100056.81
2022-11-24T00:13:55.217Z,100058.13
2022-11-24T00:16:26.123Z,100063.56
2022-11-24T00:18:56.579Z,100052.72
2022-11-24T00:21:28.301Z,100060.06
2022-11-24T00:23:57.379Z,100062.81
2022-11-24T00:26:28.305Z,100063.25
2022-11-24T00:28:59.063Z,100060.50
2022-11-24T00:31:29.253Z,100057.94
2022-11-24T00:33:59.796Z,100059.41
2022-11-24T00:36:31.876Z,100064.88
2022-11-24T00:39:02.432Z,100068.59
2022-11-24T00:41:32.028Z,100073.78
2022-11-24T00:44:01.406Z,100074.72
2022-11-24T00:46:30.096Z,100062.59
2022-11-24T00:49:00.399Z,100072.56
2022-11-24T00:51:31.384Z,100075.16
2022-11-24T00:54:00.039Z,100071.88
2022-11-24T00:56:30.347Z,100076.56
2022-11-24T00:58:59.167Z,100078.59
2022-11-24T01:01:31.039Z,100077.66
2022-11-24T01:04:02.454Z,100081.00
2022-11-24T01:06:35.675Z,100090.28
2022-11-24T01:09:04.717Z,100092.22
2022-11-24T01:11:55.216Z,100096.03
2022-11-24T01:14:25.488Z,100098.53
2022-11-24T01:16:54.534Z,100109.19
2022-11-24T01:19:23.606Z,100104.69
2022-11-24T01:21:53.512Z,100102.22
2022-11-24T01:24:22.321Z,100104.81
2022-11-24T01:26:50.881Z,100105.06
2022-11-24T01:29:19.500Z,100105.84
2022-11-24T01:31:48.047Z,100111.09
2022-11-24T01:34:16.674Z,100106.03
2022-11-24T01:36:44.958Z,100100.19
2022-11-24T01:39:14.739Z,100101.34
2022-11-24T01:41:43.219Z,100109.50
2022-11-24T01:44:27.866Z,100114.69
2022-11-24T01:47:02.490Z,100106.63
2022-11-24T01:49:40.619Z,100112.75
2022-11-24T01:52:15.353Z,100113.31
2022-11-24T01:54:49.161Z,100115.44
2022-11-24T01:57:23.824Z,100125.50
2022-11-24T01:59:57.366Z,100124.25
2022-11-24T02:02:27.258Z,100117.34
2022-11-24T02:04:56.668Z,100120.31
2022-11-24T02:07:25.670Z,100121.28
2022-11-24T02:10:00.504Z,100124.47
2022-11-24T02:12:29.816Z,100129.75
2022-11-24T02:14:59.883Z,100121.94
2022-11-24T02:17:28.156Z,100130.31
2022-11-24T02:19:59.748Z,100128.81
2022-11-24T02:22:36.300Z,100134.59
2022-11-24T02:25:15.424Z,100136.59
2022-11-24T02:27:52.265Z,100139.28
2022-11-24T02:30:22.462Z,100141.28
2022-11-24T02:32:51.257Z,100148.84
2022-11-24T02:35:20.249Z,100146.13
2022-11-24T02:37:48.579Z,100132.25
2022-11-24T02:40:17.794Z,100133.34
2022-11-24T02:42:48.290Z,100135.41
2022-11-24T02:45:17.363Z,100146.13
2022-11-24T02:47:46.041Z,100143.47
2022-11-24T02:50:14.528Z,100142.31
2022-11-24T02:52:42.818Z,100146.31
2022-11-24T02:55:11.140Z,100146.72
2022-11-24T02:57:39.457Z,100141.03
2022-11-24T03:00:11.713Z,100144.75
2022-11-24T03:02:40.615Z,100150.09
2022-11-24T03:05:11.953Z,100154.69
2022-11-24T03:07:40.381Z,100151.53
2022-11-24T03:10:09.396Z,100154.56
2022-11-24T03:12:37.820Z,100152.91
2022-11-24T03:15:09.368Z,100148.69
2022-11-24T03:17:37.747Z,100147.25
2022-11-24T03:20:07.058Z,100155.75
2022-11-24T03:22:35.588Z,100157.63
2022-11-24T03:25:04.033Z,100161.69
2022-11-24T03:27:32.736Z,100167.59
2022-11-24T03:30:01.063Z,100172.94
2022-11-24T03:32:30.824Z,100166.09
2022-11-24T03:37:27.314Z,100169.38
2022-11-24T03:39:55.715Z,100176.41
2022-11-24T03:42:24.282Z,100182.56
2022-11-24T03:44:52.659Z,100179.47
2022-11-24T03:47:21.026Z,100188.47
2022-11-24T03:49:50.780Z,100184.47
2022-11-24T03:52:19.157Z,100172.66
2022-11-24T03:54:48.122Z,100183.94
2022-11-24T03:57:16.623Z,100182.44
2022-11-24T03:59:44.939Z,100184.44
2022-11-24T04:02:13.322Z,100195.13
2022-11-24T04:04:44.669Z,100206.16
2022-11-24T04:07:16.938Z,100197.59
2022-11-24T04:09:45.690Z,100198.53
2022-11-24T04:12:31.254Z,100193.63
2022-11-24T04:14:59.592Z,100203.28
2022-11-24T04:17:28.879Z,100194.00
2022-11-24T04:19:57.376Z,100202.97
2022-11-24T04:22:27.115Z,100196.38
2022-11-24T04:24:55.443Z,100202.63
2022-11-24T04:27:23.824Z,100204.41
2022-11-24T04:29:52.143Z,100195.38
2022-11-24T04:32:20.690Z,100203.41
2022-11-24T04:34:49.041Z,100216.81
2022-11-24T04:37:17.456Z,100201.91
2022-11-24T04:39:47.262Z,100200.84
2022-11-24T04:42:15.703Z,100203.28
2022-11-24T04:44:44.090Z,100209.25
2022-11-24T04:47:16.843Z,100208.47
2022-11-24T04:49:45.285Z,100208.03
2022-11-24T04:52:13.659Z,100217.50
2022-11-24T04:54:42.113Z,100225.03
2022-11-24T04:57:17.794Z,100228.66
2022-11-24T04:59:46.479Z,100226.03
2022-11-24T05:02:15.155Z,100233.81
2022-11-24T05:04:43.659Z,100219.63
2022-11-24T05:07:18.068Z,100227.66
2022-11-24T05:10:05.271Z,100226.69
2022-11-24T05:12:35.026Z,100237.59
2022-11-24T05:15:06.247Z,100238.22
2022-11-24T05:17:37.470Z,100226.28
2022-11-24T05:20:08.004Z,100235.25
2022-11-24T05:22:36.601Z,100240.13
2022-11-24T05:25:05.370Z,100249.91
2022-11-24T05:27:35.114Z,100248.06
2022-11-24T05:30:03.575Z,100249.97
2022-11-24T05:32:31.929Z,100254.94
2022-11-24T05:35:02.242Z,100269.72
2022-11-24T05:37:31.369Z,100266.88
2022-11-24T05:39:59.734Z,100263.22
2022-11-24T05:42:47.201Z,100266.59
2022-11-24T05:45:20.840Z,100269.75
2022-11-24T05:47:50.550Z,100275.56
2022-11-24T05:50:21.230Z,100272.81
2022-11-24T05:52:49.935Z,100280.88
2022-11-24T05:55:19.635Z,100285.63
2022-11-24T05:57:48.105Z,100289.41
2022-11-24T06:00:20.248Z,100290.50
2022-11-24T06:02:49.305Z,100293.06
2022-11-24T06:05:17.957Z,100291.91
2022-11-24T06:07:46.521Z,100293.00
2022-11-24T06:10:15.751Z,100300.00
2022-11-24T06:12:44.245Z,100294.63
2022-11-24T06:15:13.768Z,100311.94
2022-11-24T06:17:43.557Z,100312.31
2022-11-24T06:20:13.128Z,100312.94
2022-11-24T06:22:41.454Z,100301.13
2022-11-24T06:25:11.023Z,100317.56
2022-11-24T06:27:39.361Z,100324.16
2022-11-24T06:30:09.177Z,100323.19
2022-11-24T06:32:37.509Z,100313.22
2022-11-24T06:35:08.186Z,100329.03
2022-11-24T06:37:38.267Z,100333.03
2022-11-24T06:40:09.950Z,100338.63
2022-11-24T06:42:39.081Z,100335.38
2022-11-24T06:45:09.743Z,100345.38
2022-11-24T06:47:38.463Z,100352.88
2022-11-24T06:50:10.627Z,100347.63
2022-11-24T06:52:38.960Z,100354.91
2022-11-24T06:55:08.674Z,100350.09
2022-11-24T06:57:37.345Z,100353.03
2022-11-24T07:00:07.934Z,100359.25
2022-11-24T07:02:38.810Z,100368.16
2022-11-24T07:05:11.362Z,100368.31
2022-11-24T07:07:39.776Z,100381.28
2022-11-24T07:10:09.496Z,100390.25
2022-11-24T07:12:37.837Z,100390.97
2022-11-24T07:15:07.989Z,100397.50
2022-11-24T07:17:38.011Z,100400.03
2022-11-24T07:20:08.989Z,100406.63
2022-11-24T07:22:38.684Z,100403.03
2022-11-24T07:25:09.895Z,100418.28
2022-11-24T07:27:38.527Z,100424.34
2022-11-24T07:30:08.779Z,100428.63
2022-11-24T07:32:37.387Z,100434.28
2022-11-24T07:35:06.967Z,100431.69
2022-11-24T07:37:35.341Z,100445.25
2022-11-24T07:40:06.090Z,100440.28
2022-11-24T07:42:34.774Z,100459.56
2022-11-24T07:45:03.428Z,100457.53
2022-11-24T07:47:31.803Z,100470.97
2022-11-24T07:50:00.192Z,100467.53
2022-11-24T07:52:28.576Z,100473.06
2022-11-24T07:54:56.955Z,100482.47
2022-11-24T07:57:26.686Z,100482.16
2022-11-24T07:59:55.016Z,100495.94
2022-11-24T08:02:23.473Z,100495.38
2022-11-24T08:04:51.847Z,100493.00
2022-11-24T08:07:20.260Z,100501.75
2022-11-24T08:09:50.375Z,100514.16
2022-11-24T08:12:21.675Z,100512.28
2022-11-24T08:14:52.494Z,100516.97
2022-11-24T08:17:20.867Z,100523.78
2022-11-24T08:19:49.203Z,100523.41
2022-11-24T08:22:17.660Z,100529.81
2022-11-24T08:24:47.989Z,100535.16
2022-11-24T08:27:17.455Z,100537.00
2022-11-24T08:29:46.805Z,100536.75
2022-11-24T08:32:21.996Z,100544.69
2022-11-24T08:34:52.091Z,100548.91
2022-11-24T08:37:20.615Z,100554.16
2022-11-24T08:39:48.975Z,100557.16
2022-11-24T08:42:17.357Z,100563.78
2022-11-24T08:44:45.706Z,100563.91
2022-11-24T08:47:15.491Z,100570.09
2022-11-24T08:49:43.796Z,100579.03
2022-11-24T08:52:12.147Z,100572.53
2022-11-24T08:54:40.880Z,100581.78
2022-11-24T08:57:09.270Z,100582.31
2022-11-24T08:59:37.636Z,100583.41
2022-11-24T09:02:06.163Z,100601.22
2022-11-24T09:04:36.266Z,100597.38
2022-11-24T09:07:05.024Z,100604.25
2022-11-24T09:09:33.521Z,100602.16
2022-11-24T09:12:01.995Z,100592.25
2022-11-24T09:14:30.779Z,100613.22
2022-11-24T09:16:59.266Z,100611.28
2022-11-24T09:19:27.737Z,100607.22
2022-11-24T09:21:57.497Z,100619.94
2022-11-24T09:24:26.013Z,100620.25
2022-11-24T09:26:56.543Z,100623.31
2022-11-24T09:29:25.380Z,100630.97
2022-11-24T09:31:53.715Z,100632.91
2022-11-24T09:34:22.363Z,100643.19
2022-11-24T09:36:51.629Z,100628.09
2022-11-24T09:39:21.362Z,100632.19
2022-11-24T09:42:11.912Z,100643.81
2022-11-24T09:45:02.954Z,100649.56
2022-11-24T09:47:45.846Z,100648.09
2022-11-24T09:50:19.981Z,100654.66
2022-11-24T09:52:54.895Z,100654.38
2022-11-24T09:55:41.203Z,100659.34
2022-11-24T09:58:36.983Z,100661.00
2022-11-24T10:01:13.819Z,100671.59
2022-11-24T10:03:45.001Z,100670.88
2022-11-24T10:06:25.549Z,100678.34
2022-11-24T10:09:46.444Z,100683.81
2022-11-24T10:12:41.782Z,100684.19
2022-11-24T10:15:34.819Z,100691.72
2022-11-24T10:18:34.140Z,100684.22
2022-11-24T10:21:19.717Z,100689.84
2022-11-24T10:24:07.543Z,100686.59
2022-11-24T10:26:38.920Z,100696.09
2022-11-24T10:29:21.878Z,100691.41
2022-11-24T10:31:56.223Z,100696.22
2022-11-24T10:34:31.049Z,100708.34
2022-11-24T10:37:06.286Z,100706.16
2022-11-24T10:39:42.187Z,100706.91
2022-11-24T10:42:19.253Z,100714.31
2022-11-24T10:45:02.248Z,100712.84
2022-11-24T10:47:32.164Z,100709.63
2022-11-24T10:50:07.250Z,100713.41
2022-11-24T10:52:43.001Z,100711.19
2022-11-24T10:55:12.010Z,100721.59
2022-11-24T10:57:41.916Z,100723.72
2022-11-24T11:00:36.892Z,100724.81
2022-11-24T11:03:20.979Z,100728.75
2022-11-24T11:05:54.919Z,100726.69
2022-11-24T11:08:27.241Z,100726.91
2022-11-24T11:11:19.527Z,100723.84
2022-11-24T11:14:01.913Z,100729.97
2022-11-24T11:16:39.330Z,100736.41
2022-11-24T11:19:49.074Z,100731.72
2022-11-24T11:22:25.807Z,100739.53
2022-11-24T11:25:24.192Z,100748.50
2022-11-24T11:27:52.619Z,100735.78
2022-11-24T11:36:16.852Z,100744.50
2022-11-24T11:38:46.427Z,100745.00
2022-11-24T11:41:21.739Z,100763.69
2022-11-24T11:43:58.170Z,100765.13
2022-11-24T11:46:31.552Z,100767.41
2022-11-24T11:49:01.739Z,100757.88
2022-11-24T11:51:55.121Z,100762.88
2022-11-24T11:54:39.699Z,100755.41
2022-11-24T11:57:16.715Z,100765.19
2022-11-24T12:00:05.037Z,100767.13
2022-11-24T12:03:25.319Z,100761.09
2022-11-24T12:06:05.717Z,100758.38
2022-11-24T12:09:18.600Z,100759.25
2022-11-24T12:11:44.467Z,100759.22
2022-11-24T12:14:23.932Z,100761.34
2022-11-24T12:17:04.102Z,100754.38
2022-11-24T12:20:04.467Z,100756.03
2022-11-24T12:22:44.064Z,100749.09
2022-11-24T12:25:30.664Z,100755.06
2022-11-24T12:28:17.635Z,100752.56
2022-11-24T12:30:59.230Z,100753.66
2022-11-24T12:34:01.961Z,100761.47
2022-11-24T12:36:52.002Z,100748.47
2022-11-24T12:39:32.796Z,100747.63
2022-11-24T12:42:11.852Z,100748.69
2022-11-24T12:45:14.190Z,100751.63
2022-11-24T12:48:04.842Z,100758.47
2022-11-24T12:50:39.230Z,100752.09
2022-11-24T12:53:14.719Z,100743.44
2022-11-24T12:55:45.661Z,100754.88
2022-11-24T12:58:26.238Z,100747.44
2022-11-24T13:01:16.151Z,100754.16
2022-11-24T13:04:01.595Z,100752.59
2022-11-24T13:06:44.389Z,100748.09
2022-11-24T13:09:16.123Z,100754.50
2022-11-24T13:11:47.350Z,100756.38
2022-11-24T13:14:30.541Z,100754.63
2022-11-24T13:19:50.611Z,100765.03
2022-11-24T13:22:26.258Z,100756.81
2022-11-24T13:25:18.786Z,100766.25
2022-11-24T13:27:53.017Z,100767.22
2022-11-24T13:31:08.547Z,100763.59
2022-11-24T13:33:39.229Z,100772.63
2022-11-24T13:36:54.791Z,100776.28
2022-11-24T13:39:48.932Z,100779.63
2022-11-24T13:42:41.653Z,100780.06
2022-11-24T13:45:51.166Z,100784.31
2022-11-24T13:49:00.220Z,100779.63
2022-11-24T13:51:28.947Z,100786.78
2022-11-24T13:54:00.948Z,100774.97
2022-11-24T13:56:32.023Z,100783.84
2022-11-24T13:59:15.449Z,100778.16
2022-11-24T14:01:46.909Z,100782.97
2022-11-24T14:04:31.763Z,100776.53
2022-11-24T14:07:16.799Z,100776.28
2022-11-24T14:09:48.955Z,100782.34
2022-11-24T14:12:21.254Z,100772.53
2022-11-24T14:14:51.336Z,100774.47
2022-11-24T14:17:23.578Z,100779.91
2022-11-24T14:19:54.319Z,100768.28
2022-11-24T14:22:26.933Z,100771.94
2022-11-24T14:24:58.237Z,100779.19
2022-11-24T14:27:32.695Z,100770.22
2022-11-24T14:30:03.859Z,100780.66
2022-11-24T14:32:33.585Z,100778.34
2022-11-24T14:35:02.080Z,100770.31
2022-11-24T14:37:30.519Z,100773.81
2022-11-24T14:39:58.881Z,100776.81
2022-11-24T14:42:28.513Z,100771.22
2022-11-24T14:44:59.363Z,100772.50
2022-11-24T14:47:32.225Z,100754.97
2022-11-24T14:50:13.281Z,100755.06
2022-11-24T14:52:48.175Z,100763.59
2022-11-24T14:55:28.718Z,100758.53
2022-11-24T14:57:57.518Z,100757.66
2022-11-24T15:00:32.104Z,100759.06
2022-11-24T15:03:18.786Z,100765.03
2022-11-24T15:05:58.418Z,100771.81
2022-11-24T15:08:29.349Z,100769.91
2022-11-24T15:11:01.459Z,100775.78
2022-11-24T15:13:33.454Z,100774.94
2022-11-24T15:16:05.975Z,100770.13
2022-11-24T15:18:42.003Z,100779.13
2022-11-24T15:21:18.869Z,100789.97
2022-11-24T15:24:08.118Z,100788.06
2022-11-24T15:26:41.624Z,100791.78
2022-11-24T15:29:10.927Z,100794.38
2022-11-24T15:31:40.119Z,100787.72
2022-11-24T15:34:10.770Z,100791.47
2022-11-24T15:36:40.803Z,100780.41
2022-11-24T15:39:09.386Z,100789.72
2022-11-24T15:41:38.008Z,100782.34
2022-11-24T15:44:06.792Z,100788.28
2022-11-24T15:46:38.577Z,100771.53
2022-11-24T15:49:07.915Z,100783.91
2022-11-24T15:51:42.308Z,100797.84
2022-11-24T15:54:15.326Z,100793.25
2022-11-24T15:56:44.654Z,100799.28
2022-11-24T15:59:20.261Z,100810.91
2022-11-24T16:01:50.932Z,100806.09
2022-11-24T16:04:19.810Z,100811.19
2022-11-24T16:06:49.896Z,100805.84
2022-11-24T16:09:18.692Z,100808.78
2022-11-24T16:11:47.324Z,100806.41
2022-11-24T16:14:15.934Z,100812.63
2022-11-24T16:16:44.659Z,100814.31
2022-11-24T16:19:15.825Z,100821.53
2022-11-24T16:21:44.509Z,100827.78
2022-11-24T16:24:14.611Z,100818.03
2022-11-24T16:26:43.282Z,100820.38
2022-11-24T16:29:11.943Z,100818.78
2022-11-24T16:31:43.485Z,100817.56
2022-11-24T16:34:12.202Z,100826.13
2022-11-24T16:36:40.811Z,100823.34
2022-11-24T16:39:09.419Z,100815.19
2022-11-24T16:41:39.524Z,100812.84
2022-11-24T16:44:08.134Z,100813.59
2022-11-24T16:46:36.734Z,100821.50
2022-11-24T16:49:05.352Z,100821.91
2022-11-24T16:51:35.128Z,100821.06
2022-11-24T16:54:05.260Z,100818.66
2022-11-24T16:56:34.019Z,100820.63
2022-11-24T16:59:04.473Z,100826.13
2022-11-24T17:01:33.892Z,100814.31
2022-11-24T17:04:03.723Z,100825.19
2022-11-24T17:06:34.340Z,100819.91
2022-11-24T17:09:03.030Z,100820.50
2022-11-24T17:11:31.655Z,100822.06
2022-11-24T17:14:00.416Z,100817.50
2022-11-24T17:16:30.750Z,100821.00
2022-11-24T17:18:59.868Z,100823.53
2022-11-24T17:21:29.182Z,100818.63
2022-11-24T17:23:58.875Z,100823.88
2022-11-24T17:26:28.528Z,100831.03
2022-11-24T17:28:57.254Z,100827.97
2022-11-24T17:31:27.613Z,100830.47
2022-11-24T17:33:59.117Z,100836.41
2022-11-24T17:36:28.500Z,100837.88
2022-11-24T17:38:57.302Z,100841.09
2022-11-24T17:41:25.902Z,100841.56
2022-11-24T17:43:56.691Z,100839.34
2022-11-24T17:46:25.731Z,100842.78
2022-11-24T17:48:56.425Z,100851.47
2022-11-24T17:51:26.211Z,100850.88
2022-11-24T17:53:57.339Z,100842.19
2022-11-24T17:56:27.848Z,100850.03
2022-11-24T17:58:57.778Z,100844.16
2022-11-24T18:01:28.585Z,100846.81
2022-11-24T18:03:59.149Z,100848.44
2022-11-24T18:06:28.850Z,100852.00
2022-11-24T18:08:58.649Z,100865.09
2022-11-24T18:11:31.716Z,100858.91
2022-11-24T18:14:03.498Z,100864.06
2022-11-24T18:16:34.298Z,100866.25
2022-11-24T18:19:10.726Z,100865.22
2022-11-24T18:21:41.546Z,100866.31
2022-11-24T18:24:11.492Z,100866.06
2022-11-24T18:26:40.797Z,100862.06
2022-11-24T18:29:09.996Z,100864.97
2022-11-24T18:31:38.761Z,100875.00
2022-11-24T18:34:08.945Z,100864.34
2022-11-24T18:36:37.885Z,100864.16
2022-11-24T18:39:08.918Z,100864.09
2022-11-24T18:41:37.691Z,100871.38
2022-11-24T18:44:08.526Z,100877.41
2022-11-24T18:46:37.684Z,100867.34
2022-11-24T18:49:07.991Z,100868.69
2022-11-24T18:51:36.789Z,100870.28
2022-11-24T18:54:05.830Z,100855.97
2022-11-24T18:56:34.333Z,100863.28
2022-11-24T18:59:02.903Z,100866.06
2022-11-24T19:01:32.253Z,100863.94
2022-11-24T19:04:03.446Z,100863.47
2022-11-24T19:06:35.942Z,100861.88
2022-11-24T19:09:07.880Z,100858.19
2022-11-24T19:11:39.071Z,100864.97
2022-11-24T19:14:13.060Z,100859.03
2022-11-24T19:16:41.733Z,100849.41
2022-11-24T19:19:12.983Z,100845.84
2022-11-24T19:21:43.237Z,100843.31
2022-11-24T19:24:13.210Z,100838.38
2022-11-24T19:26:41.997Z,100842.56
2022-11-24T19:29:10.541Z,100845.53
2022-11-24T19:31:39.981Z,100835.72
2022-11-24T19:34:09.014Z,100840.88
2022-11-24T19:36:38.235Z,100841.16
2022-11-24T19:39:08.454Z,100845.06
2022-11-24T19:41:36.847Z,100843.63
2022-11-24T19:44:05.411Z,100842.16
2022-11-24T19:46:33.875Z,100845.06
2022-11-24T19:49:03.966Z,100850.53
2022-11-24T19:51:34.815Z,100856.88
2022-11-24T19:54:03.780Z,100844.28
2022-11-24T19:56:37.056Z,100841.66
2022-11-24T19:59:07.357Z,100842.06
2022-11-24T20:01:38.147Z,100841.78
2022-11-24T20:04:09.193Z,100842.16
2022-11-24T20:06:40.215Z,100839.88
2022-11-24T20:09:10.995Z,100845.53
2022-11-24T20:11:41.306Z,100838.59
2022-11-24T20:14:14.091Z,100830.53
2022-11-24T20:16:43.443Z,100840.13
2022-11-24T20:19:14.392Z,100844.78
2022-11-24T20:21:46.148Z,100843.84
2022-11-24T20:24:16.733Z,100843.22
2022-11-24T20:26:49.430Z,100842.75
2022-11-24T20:29:18.416Z,100842.66
2022-11-24T20:31:49.273Z,100849.59
2022-11-24T20:34:18.535Z,100844.69
2022-11-24T20:36:48.679Z,100850.19
2022-11-24T20:39:20.520Z,100850.63
2022-11-24T20:41:50.330Z,100842.66
2022-11-24T20:44:22.374Z,100833.81
2022-11-24T20:46:50.945Z,100840.66
2022-11-24T20:49:21.955Z,100837.22
2022-11-24T20:51:54.468Z,100845.56
2022-11-24T20:54:23.273Z,100845.84
2022-11-24T20:56:53.052Z,100839.16
2022-11-24T20:59:24.358Z,100840.63
2022-11-24T21:01:55.504Z,100843.41
2022-11-24T21:04:27.504Z,100839.56
2022-11-24T21:06:55.960Z,100851.69
2022-11-24T21:09:24.788Z,100848.75
2022-11-24T21:11:54.787Z,100856.84
2022-11-24T21:14:24.456Z,100855.53
2022-11-24T21:16:52.986Z,100845.94
2022-11-24T21:19:21.416Z,100846.50
2022-11-24T21:21:50.163Z,100848.66
2022-11-24T21:24:21.607Z,100837.91
2022-11-24T21:26:52.803Z,100841.13
2022-11-24T21:29:25.529Z,100853.88
2022-11-24T21:31:54.083Z,100847.16
2022-11-24T21:34:22.462Z,100848.84
2022-11-24T21:36:50.862Z,100842.72
2022-11-24T21:39:19.283Z,100845.69
2022-11-24T21:41:47.761Z,100841.72
2022-11-24T21:44:16.675Z,100836.50
2022-11-24T21:46:52.651Z,100841.34
2022-11-24T21:49:22.725Z,100845.41
2022-11-24T21:51:55.469Z,100843.41
2022-11-24T21:54:24.201Z,100840.88
2022-11-24T21:56:53.810Z,100838.19
2022-11-24T21:59:22.759Z,100832.03
2022-11-24T22:01:52.698Z,100828.09
2022-11-24T22:04:21.159Z,100833.56
2022-11-24T22:06:49.503Z,100828.09
2022-11-24T22:09:18.670Z,100833.44
2022-11-24T22:11:49.143Z,100834.28
2022-11-24T22:14:17.903Z,100825.69
2022-11-24T22:16:47.069Z,100820.09
2022-11-24T22:19:16.922Z,100821.56
2022-11-24T22:21:45.556Z,100824.41
2022-11-24T22:24:14.137Z,100827.72
2022-11-24T22:26:42.483Z,100821.28
2022-11-24T22:29:11.053Z,100823.34
2022-11-24T22:31:39.523Z,100811.38
2022-11-24T22:34:08.119Z,100821.81
2022-11-24T22:36:37.829Z,100820.34
2022-11-24T22:39:07.440Z,100813.03
2022-11-24T22:41:36.946Z,100806.06
2022-11-24T22:44:06.197Z,100803.41
2022-11-24T22:46:34.690Z,100809.84
2022-11-24T22:49:03.626Z,100794.31
2022-11-24T22:51:34.326Z,100798.63
2022-11-24T22:54:05.939Z,100797.28
2022-11-24T22:56:35.323Z,100798.84
2022-11-24T22:59:05.127Z,100791.31
2022-11-24T23:01:34.702Z,100784.50
2022-11-24T23:04:04.100Z,100777.06
2022-11-24T23:06:33.859Z,100781.94
2022-11-24T23:09:04.797Z,100775.53
2022-11-24T23:11:38.439Z,100779.41
2022-11-24T23:14:08.546Z,100776.50
2022-11-24T23:16:37.288Z,100774.66
2022-11-24T23:19:06.701Z,100780.66
2022-11-24T23:21:38.317Z,100789.59
2022-11-24T23:24:09.751Z,100771.25
2022-11-24T23:26:40.501Z,100772.50
2022-11-24T23:29:11.261Z,100776.81
2022-11-24T23:31:40.879Z,100774.22
2022-11-24T23:34:10.150Z,100778.38
2022-11-24T23:36:38.784Z,100768.44
2022-11-24T23:39:11.873Z,100769.00
2022-11-24T23:41:40.472Z,100760.16
2022-11-24T23:44:09.375Z,100757.03
2022-11-24T23:46:38.253Z,100757.94
2022-11-24T23:49:06.881Z,100769.06
2022-11-24T23:51:35.514Z,100760.75
2022-11-24T23:54:08.415Z,100763.34
2022-11-24T23:56:38.692Z,100760.56
2022-11-24T23:59:07.337Z,100759.81
